Time;durP1;ratioP1;P1;durP2;ratioP2;P2;SDS_P1;SDS_P2;PMS_P1;PMS_P2;Temp;Humidity;BMP_temperature;BMP_pressure;BME280_temperature;BME280_humidity;BME280_pressure;Samples;Min_cycle;Max_cycle;Signal;HPM_P1;HPM_P2
2023/09/09 00:00:54;;;;;;;111.45;106.45;;;;;;;27.49;60.06;98656.53;5013687;27;102695;-63
2023/09/09 00:03:25;;;;;;;117.30;111.90;;;;;;;27.01;60.32;98658.91;5013419;28;102795;-64
2023/09/09 00:05:56;;;;;;;112.15;106.95;;;;;;;26.46;63.14;98660.34;5014951;28;103278;-63
2023/09/09 00:08:24;;;;;;;107.97;103.22;;;;;;;27.23;61.06;98655.88;5002192;28;104147;-63
2023/09/09 00:10:53;;;;;;;115.28;110.07;;;;;;;27.45;59.63;98654.50;5010600;28;103753;-64
2023/09/09 00:13:21;;;;;;;111.23;106.23;;;;;;;27.03;61.56;98656.78;5016949;28;103719;-64
2023/09/09 00:15:53;;;;;;;97.47;92.97;;;;;;;27.37;60.19;98652.84;4998346;28;104032;-64
2023/09/09 00:18:22;;;;;;;105.35;100.25;;;;;;;26.55;62.47;98652.81;5018586;28;103296;-63
2023/09/09 00:20:52;;;;;;;103.55;98.90;;;;;;;26.92;61.66;98656.66;5017201;28;102656;-63
2023/09/09 00:23:20;;;;;;;96.93;92.63;;;;;;;27.31;60.29;98653.69;5021727;27;102892;-64
2023/09/09 00:25:48;;;;;;;117.67;112.50;;;;;;;27.12;60.45;98653.84;5017000;28;104021;-64
2023/09/09 00:28:16;;;;;;;124.47;118.77;;;;;;;26.73;62.32;98657.53;5018283;28;103364;-63
2023/09/09 00:30:45;;;;;;;125.00;119.40;;;;;;;26.99;61.44;98662.88;5016544;27;102783;-64
2023/09/09 00:33:13;;;;;;;116.10;110.70;;;;;;;25.54;66.08;98667.69;5014241;27;104225;-63
2023/09/09 00:35:41;;;;;;;316.57;302.80;;;;;;;25.90;67.02;98661.88;5016561;28;104161;-64
2023/09/09 00:38:13;;;;;;;272.67;260.80;;;;;;;25.97;66.92;98654.56;4999839;28;103211;-63
2023/09/09 00:40:44;;;;;;;204.63;195.88;;;;;;;25.98;65.13;98655.41;4997619;28;102832;-64
2023/09/09 00:43:15;;;;;;;236.93;227.20;;;;;;;26.58;63.96;98652.41;5016256;28;103078;-63
2023/09/09 00:45:43;;;;;;;195.43;186.98;;;;;;;26.66;62.71;98654.03;4998828;28;103365;-63
2023/09/09 00:48:11;;;;;;;118.87;113.60;;;;;;;27.16;59.87;98657.78;5016970;28;103255;-64
2023/09/09 00:50:40;;;;;;;197.85;189.23;;;;;;;26.15;63.33;98657.50;5018338;28;103962;-63
2023/09/09 00:53:10;;;;;;;361.33;346.27;;;;;;;26.03;66.39;98661.00;4998483;28;103021;-63
2023/09/09 00:55:40;;;;;;;292.83;280.92;;;;;;;26.31;64.18;98657.03;4997097;28;103832;-64
2023/09/09 00:58:08;;;;;;;297.58;285.65;;;;;;;26.41;63.70;98651.19;4998778;28;103728;-64
2023/09/09 01:00:38;;;;;;;307.13;294.57;;;;;;;25.94;65.02;98655.81;4996869;28;103029;-63
2023/09/09 01:03:06;;;;;;;453.10;434.08;;;;;;;25.83;67.04;98652.91;4996154;28;104248;-63
2023/09/09 01:05:35;;;;;;;408.63;391.60;;;;;;;25.93;66.79;98653.34;5017681;28;104388;-63
2023/09/09 01:08:04;;;;;;;302.52;290.35;;;;;;;26.51;62.77;98654.28;5018374;27;103517;-63
2023/09/09 01:10:36;;;;;;;213.45;204.60;;;;;;;26.19;63.21;98647.91;5014505;28;102688;-64
2023/09/09 01:13:04;;;;;;;259.08;248.48;;;;;;;26.24;63.25;98655.41;5017448;28;102698;-63
2023/09/09 01:15:32;;;;;;;284.63;273.25;;;;;;;26.63;62.54;98647.16;5011245;28;103689;-63
2023/09/09 01:18:01;;;;;;;302.23;290.08;;;;;;;26.49;62.94;98659.09;5011941;28;103284;-64
2023/09/09 01:20:32;;;;;;;370.58;355.38;;;;;;;26.20;64.41;98659.56;5016366;28;103431;-64
2023/09/09 01:23:02;;;;;;;356.90;342.63;;;;;;;26.55;63.75;98658.25;5012814;28;102950;-63
2023/09/09 01:25:30;;;;;;;331.42;318.33;;;;;;;26.80;62.65;98661.94;4993223;28;103351;-64
2023/09/09 01:27:59;;;;;;;367.33;352.50;;;;;;;25.89;64.59;98669.16;5012317;28;103344;-63
2023/09/09 01:30:27;;;;;;;524.47;501.67;;;;;;;25.27;68.53;98671.34;5009484;27;103029;-64
2023/09/09 01:32:55;;;;;;;552.30;528.20;;;;;;;25.94;67.18;98666.66;5012968;27;102922;-64
2023/09/09 01:35:23;;;;;;;504.25;482.95;;;;;;;25.68;66.90;98671.25;4997426;27;103564;-64
2023/09/09 01:37:51;;;;;;;638.42;608.15;;;;;;;25.17;70.71;98663.66;5015234;28;103199;-63
2023/09/09 01:40:21;;;;;;;453.60;435.15;;;;;;;25.92;65.78;98660.63;4993270;28;102776;-63
2023/09/09 01:42:49;;;;;;;429.77;412.35;;;;;;;25.51;67.81;98669.97;5010141;28;103877;-63
2023/09/09 01:45:18;;;;;;;465.58;446.63;;;;;;;26.35;65.41;98671.00;5005084;28;103764;-63
2023/09/09 01:47:46;;;;;;;283.88;273.20;;;;;;;26.88;62.51;98664.41;5008805;27;103325;-63
2023/09/09 01:50:15;;;;;;;385.50;370.30;;;;;;;26.56;63.86;98669.88;4988611;28;102814;-63
2023/09/09 01:52:43;;;;;;;316.42;304.27;;;;;;;26.64;62.89;98667.78;5010330;28;102781;-63
2023/09/09 01:55:11;;;;;;;278.95;268.30;;;;;;;26.64;62.97;98662.34;5012534;28;103052;-63
2023/09/09 01:57:40;;;;;;;308.65;296.83;;;;;;;26.45;63.02;98664.09;5012797;28;103265;-64
2023/09/09 02:00:09;;;;;;;484.77;464.60;;;;;;;25.53;67.23;98673.31;4989206;28;103033;-63
2023/09/09 02:02:41;;;;;;;615.25;587.25;;;;;;;25.05;70.83;98664.44;5015336;28;102691;-64
2023/09/09 02:05:11;;;;;;;637.30;607.57;;;;;;;24.65;73.02;98666.94;5000668;28;105483;-64
2023/09/09 02:07:38;;;;;;;625.17;595.83;;;;;;;24.06;78.31;98665.75;4993946;28;105448;-63
2023/09/09 02:10:07;;;;;;;648.13;615.75;;;;;;;24.94;73.97;98667.72;4995044;28;102764;-63
2023/09/09 02:12:42;;;;;;;620.75;590.45;;;;;;;24.24;77.38;98660.72;4993985;28;102877;-64
2023/09/09 02:15:13;;;;;;;548.00;522.13;;;;;;;24.10;78.60;98664.34;4996624;28;104309;-64
2023/09/09 02:17:41;;;;;;;439.67;420.05;;;;;;;24.09;79.42;98668.03;4999386;28;104080;-63
2023/09/09 02:20:10;;;;;;;449.55;428.90;;;;;;;24.25;77.95;98665.09;5014309;28;103059;-64
2023/09/09 02:22:38;;;;;;;419.90;401.27;;;;;;;24.22;78.52;98669.00;5010951;27;104044;-63
2023/09/09 02:25:07;;;;;;;449.10;428.75;;;;;;;24.32;77.71;98667.81;4990701;28;103566;-64
2023/09/09 02:27:38;;;;;;;437.38;417.27;;;;;;;24.79;75.71;98662.44;5018325;28;103867;-64
2023/09/09 02:30:08;;;;;;;451.60;430.35;;;;;;;24.84;75.00;98657.31;5013384;27;102707;-64
2023/09/09 02:32:38;;;;;;;450.37;429.23;;;;;;;24.49;76.33;98653.78;4996502;28;104281;-64
2023/09/09 02:35:09;;;;;;;448.75;428.25;;;;;;;24.31;77.48;98650.78;5007995;27;103355;-64
2023/09/09 02:37:37;;;;;;;456.35;435.00;;;;;;;24.85;74.85;98655.41;5019048;28;103223;-64
2023/09/09 02:40:06;;;;;;;448.42;427.75;;;;;;;24.68;75.91;98653.03;5028601;27;102793;-64
2023/09/09 02:42:34;;;;;;;434.27;414.77;;;;;;;24.70;76.38;98658.25;4995345;28;104134;-64
2023/09/09 02:45:03;;;;;;;430.83;410.83;;;;;;;24.99;74.97;98660.66;5012715;27;103273;-64
2023/09/09 02:47:33;;;;;;;400.90;382.67;;;;;;;25.62;72.63;98656.66;5000114;28;103262;-64
2023/09/09 02:50:00;;;;;;;318.07;304.53;;;;;;;25.97;68.43;98642.91;4999466;28;103018;-64
2023/09/09 02:52:29;;;;;;;351.35;335.80;;;;;;;25.51;70.85;98643.78;4990964;28;102812;-64
2023/09/09 02:54:57;;;;;;;326.67;312.58;;;;;;;25.77;69.74;98642.91;4992714;28;104064;-63
2023/09/09 02:57:26;;;;;;;378.73;361.83;;;;;;;25.22;71.44;98649.50;5015426;28;103232;-64
2023/09/09 02:59:54;;;;;;;298.90;285.98;;;;;;;25.89;69.98;98644.78;5013732;28;102684;-64
2023/09/09 03:02:22;;;;;;;188.43;180.37;;;;;;;26.06;67.51;98647.06;4994200;28;103024;-64
2023/09/09 03:04:51;;;;;;;216.13;207.02;;;;;;;25.58;68.32;98644.59;5015084;27;103878;-64
2023/09/09 03:07:20;;;;;;;214.75;205.57;;;;;;;25.59;68.56;98650.84;5016660;27;103661;-64
2023/09/09 03:09:50;;;;;;;372.10;355.47;;;;;;;25.49;71.38;98650.44;5017486;28;104548;-64
2023/09/09 03:12:20;;;;;;;263.00;251.85;;;;;;;25.34;69.94;98653.28;5011366;28;103562;-64
2023/09/09 03:14:49;;;;;;;279.30;267.50;;;;;;;25.57;69.64;98647.53;5014202;28;103293;-64
2023/09/09 03:17:17;;;;;;;287.35;275.10;;;;;;;25.15;70.57;98656.78;4998003;28;103343;-64
2023/09/09 03:19:46;;;;;;;397.25;379.23;;;;;;;25.27;71.60;98647.00;4995982;28;102734;-64
2023/09/09 03:22:17;;;;;;;403.17;384.90;;;;;;;24.99;73.46;98654.44;5010836;28;104016;-63
2023/09/09 03:24:45;;;;;;;408.43;389.97;;;;;;;25.02;73.63;98648.63;5008396;28;104073;-64
2023/09/09 03:27:13;;;;;;;391.77;374.17;;;;;;;25.08;74.09;98659.47;5013850;28;103022;-64
2023/09/09 03:29:41;;;;;;;378.55;361.88;;;;;;;24.77;76.07;98649.13;4992507;28;102672;-64
2023/09/09 03:32:09;;;;;;;372.35;356.05;;;;;;;24.94;75.92;98656.91;5014240;27;102796;-64
2023/09/09 03:34:40;;;;;;;368.23;351.92;;;;;;;24.85;75.62;98647.31;4989713;28;103259;-64
2023/09/09 03:37:09;;;;;;;353.05;337.73;;;;;;;25.36;74.33;98652.03;5017780;28;103221;-64
2023/09/09 03:39:38;;;;;;;350.85;335.17;;;;;;;24.82;75.61;98650.41;4999470;28;102803;-64
2023/09/09 03:42:07;;;;;;;355.15;339.58;;;;;;;24.78;75.87;98648.13;4996791;28;102960;-64
2023/09/09 03:44:37;;;;;;;348.02;333.13;;;;;;;24.54;77.38;98645.09;5013423;28;105039;-64
2023/09/09 03:47:05;;;;;;;335.23;320.73;;;;;;;24.81;76.09;98646.91;4998328;28;104156;-64
2023/09/09 03:49:33;;;;;;;330.75;316.27;;;;;;;24.74;76.51;98648.72;4999979;28;104388;-64
2023/09/09 03:52:05;;;;;;;319.70;305.88;;;;;;;24.82;75.65;98650.41;5014274;27;103937;-64
2023/09/09 03:54:33;;;;;;;305.42;292.17;;;;;;;25.67;72.30;98643.34;4997868;28;104262;-64
2023/09/09 03:57:02;;;;;;;329.42;314.92;;;;;;;24.23;77.87;98653.63;5012795;27;103527;-64
2023/09/09 03:59:31;;;;;;;346.35;330.85;;;;;;;24.84;75.86;98656.47;5017607;28;102657;-64
2023/09/09 04:02:00;;;;;;;340.83;325.73;;;;;;;25.38;73.24;98654.50;5018235;27;102886;-64
2023/09/09 04:04:28;;;;;;;308.87;295.63;;;;;;;26.02;69.96;98651.25;5002096;28;103506;-65
2023/09/09 04:06:56;;;;;;;433.65;413.23;;;;;;;25.62;71.05;98656.66;5015079;28;103300;-64
2023/09/09 04:09:26;;;;;;;518.83;493.13;;;;;;;25.01;73.73;98664.00;5020039;28;102961;-64
2023/09/09 04:11:55;;;;;;;482.83;459.92;;;;;;;25.93;70.23;98659.59;4999659;28;103051;-64
2023/09/09 04:14:25;;;;;;;526.87;500.97;;;;;;;25.35;72.36;98665.75;5001124;28;104409;-65
2023/09/09 04:16:53;;;;;;;539.38;512.17;;;;;;;25.28;72.38;98662.22;5002777;28;103425;-65
2023/09/09 04:19:23;;;;;;;528.85;502.70;;;;;;;25.75;71.13;98662.06;5017788;28;102666;-65
2023/09/09 04:21:52;;;;;;;473.23;450.77;;;;;;;25.59;70.62;98662.50;5014964;28;104074;-64
2023/09/09 04:24:20;;;;;;;559.13;531.07;;;;;;;24.71;74.52;98658.06;4996736;27;103270;-64
2023/09/09 04:26:48;;;;;;;562.40;533.53;;;;;;;25.15;73.72;98664.91;5010346;28;105688;-66
2023/09/09 04:29:16;;;;;;;583.13;553.28;;;;;;;24.54;75.84;98662.13;4996217;28;103918;-64
2023/09/09 04:31:47;;;;;;;580.85;550.85;;;;;;;25.36;72.94;98656.59;5016258;28;102899;-64
2023/09/09 04:34:16;;;;;;;503.48;478.88;;;;;;;25.93;69.71;98665.00;5017239;27;103760;-63
2023/09/09 04:36:45;;;;;;;470.73;448.30;;;;;;;25.90;68.59;98654.59;4996375;28;103258;-63
2023/09/09 04:39:16;;;;;;;499.58;475.42;;;;;;;25.96;69.01;98663.75;5013834;27;102864;-66
2023/09/09 04:41:45;;;;;;;423.27;403.93;;;;;;;26.23;66.20;98654.56;4992406;28;102863;-64
2023/09/09 04:44:14;;;;;;;422.90;404.10;;;;;;;26.39;66.02;98664.09;5017615;27;103764;-64
2023/09/09 04:46:43;;;;;;;398.03;380.40;;;;;;;26.11;66.16;98655.38;5011346;28;103169;-63
2023/09/09 04:49:13;;;;;;;525.35;500.13;;;;;;;25.69;69.34;98662.91;5008366;28;102674;-62
2023/09/09 04:51:41;;;;;;;421.83;403.00;;;;;;;26.25;66.66;98657.03;4995527;28;102979;-64
2023/09/09 04:54:10;;;;;;;404.45;386.52;;;;;;;25.91;66.70;98656.22;5015190;28;104245;-63
2023/09/09 04:56:39;;;;;;;507.85;484.10;;;;;;;25.74;68.81;98659.59;5015992;28;103191;-64
2023/09/09 04:59:09;;;;;;;436.90;417.30;;;;;;;26.26;66.48;98664.97;5011197;28;103081;-62
2023/09/09 05:01:38;;;;;;;406.65;389.25;;;;;;;26.34;64.52;98664.75;4992807;28;104113;-64
2023/09/09 05:04:07;;;;;;;405.98;388.75;;;;;;;26.56;64.39;98662.59;5013513;28;104238;-63
2023/09/09 05:06:39;;;;;;;393.23;376.50;;;;;;;26.49;64.27;98664.50;4994490;28;105155;-62
2023/09/09 05:09:08;;;;;;;366.23;351.13;;;;;;;26.58;63.85;98668.66;5000439;28;102792;-63
2023/09/09 05:11:36;;;;;;;400.55;383.65;;;;;;;26.47;64.60;98662.00;5011959;28;102909;-63
2023/09/09 05:14:05;;;;;;;446.98;427.02;;;;;;;26.18;66.27;98672.50;5014679;28;103765;-65
2023/09/09 05:16:36;;;;;;;463.90;443.30;;;;;;;26.31;65.54;98672.44;5014504;27;103455;-63
2023/09/09 05:19:05;;;;;;;443.95;424.67;;;;;;;26.62;64.45;98674.44;5016609;28;102741;-62
2023/09/09 05:21:34;;;;;;;469.58;448.60;;;;;;;25.98;65.97;98671.63;5013571;28;104626;-64
2023/09/09 05:24:04;;;;;;;586.47;557.97;;;;;;;25.72;69.08;98676.00;5000381;28;105041;-62
2023/09/09 05:26:34;;;;;;;639.07;606.70;;;;;;;25.87;69.30;98679.38;5011852;28;103251;-62
2023/09/09 05:29:04;;;;;;;570.83;543.10;;;;;;;26.39;66.11;98681.19;5015175;28;102631;-62
2023/09/09 05:31:32;;;;;;;507.67;484.52;;;;;;;26.68;64.39;98679.84;4998217;27;104643;-65
2023/09/09 05:34:03;;;;;;;390.63;374.37;;;;;;;26.92;62.55;98681.06;4999449;28;104257;-64
2023/09/09 05:36:32;;;;;;;442.57;423.13;;;;;;;26.93;62.52;98678.13;4994511;28;104336;-62
2023/09/09 05:39:01;;;;;;;497.90;475.02;;;;;;;26.29;65.19;98680.81;4994740;28;103247;-64
2023/09/09 05:41:32;;;;;;;573.38;545.17;;;;;;;26.24;67.05;98686.03;5015382;28;103030;-62
2023/09/09 05:44:02;;;;;;;480.27;458.33;;;;;;;26.90;63.18;98683.97;4993019;28;103641;-62
2023/09/09 05:46:31;;;;;;;447.50;427.40;;;;;;;26.92;62.94;98692.72;4996555;28;103625;-62
2023/09/09 05:49:00;;;;;;;460.27;439.90;;;;;;;27.03;62.59;98692.03;4990313;28;103205;-62
2023/09/09 05:51:29;;;;;;;443.58;423.70;;;;;;;26.98;62.92;98691.84;5003557;28;102943;-65
2023/09/09 05:54:00;;;;;;;403.93;386.73;;;;;;;27.35;61.72;98697.50;5015959;28;104329;-63
2023/09/09 05:56:29;;;;;;;340.90;327.33;;;;;;;27.54;61.13;98691.16;4994022;28;103533;-62
2023/09/09 05:59:00;;;;;;;375.58;359.98;;;;;;;27.44;61.42;98696.22;4996284;28;102659;-64
2023/09/09 06:01:29;;;;;;;280.53;269.83;;;;;;;27.68;60.79;98703.56;4996234;28;104904;-62
2023/09/09 06:03:57;;;;;;;233.40;224.52;;;;;;;27.83;60.38;98698.66;5001551;27;104393;-64
2023/09/09 06:06:27;;;;;;;221.00;212.68;;;;;;;27.92;60.23;98700.06;5012116;27;103321;-63
2023/09/09 06:08:59;;;;;;;199.17;191.67;;;;;;;28.06;59.91;98696.22;5015660;27;102915;-63
2023/09/09 06:11:28;;;;;;;176.37;169.67;;;;;;;28.29;59.07;98695.59;5018584;28;103646;-63
2023/09/09 06:13:57;;;;;;;208.27;200.27;;;;;;;28.36;58.96;98706.38;5015162;27;103509;-63
2023/09/09 06:16:26;;;;;;;193.68;186.35;;;;;;;28.53;58.96;98702.00;5002178;28;103062;-63
2023/09/09 06:18:56;;;;;;;176.20;169.50;;;;;;;28.45;58.69;98705.03;5019260;28;102892;-63
2023/09/09 06:21:26;;;;;;;153.48;147.57;;;;;;;28.74;57.79;98710.56;5003173;28;102775;-64
2023/09/09 06:23:55;;;;;;;135.13;129.93;;;;;;;28.69;58.42;98706.88;4999346;28;103959;-64
2023/09/09 06:26:23;;;;;;;114.72;110.22;;;;;;;28.85;57.91;98709.00;5001277;28;103181;-65
2023/09/09 06:28:56;;;;;;;123.15;118.25;;;;;;;28.86;57.68;98705.22;5007961;27;102683;-65
2023/09/09 06:31:27;;;;;;;224.70;216.20;;;;;;;28.65;58.87;98716.56;5006709;28;102884;-66
2023/09/09 06:33:59;;;;;;;226.50;217.98;;;;;;;28.78;59.01;98716.41;5016333;27;103295;-66
2023/09/09 06:36:28;;;;;;;192.27;184.97;;;;;;;28.93;58.05;98710.59;4998448;28;103480;-66
2023/09/09 06:38:59;;;;;;;130.87;125.80;;;;;;;29.07;57.35;98715.63;4999913;28;102940;-66
2023/09/09 06:41:28;;;;;;;133.80;128.27;;;;;;;29.12;56.94;98721.22;5013747;28;102813;-67
2023/09/09 06:43:56;;;;;;;151.25;145.25;;;;;;;28.96;57.53;98721.84;5012761;27;103226;-66
2023/09/09 06:46:27;;;;;;;111.53;107.03;;;;;;;29.30;56.96;98721.22;5014533;28;103193;-66
2023/09/09 06:48:56;;;;;;;205.25;197.38;;;;;;;28.80;57.93;98725.16;4995458;28;102787;-67
2023/09/09 06:51:26;;;;;;;145.55;139.55;;;;;;;29.02;56.83;98718.22;4991138;28;102783;-66
2023/09/09 06:54:05;;;;;;;128.13;122.63;;;;;;;29.03;57.06;98724.47;5014149;27;103485;-67
2023/09/09 06:56:40;;;;;;;125.23;120.03;;;;;;;29.20;56.97;98731.78;5012574;28;103170;-67
2023/09/09 06:59:12;;;;;;;87.68;83.97;;;;;;;29.73;55.70;98731.06;5012603;28;103353;-67
2023/09/09 07:01:49;;;;;;;232.55;223.68;;;;;;;28.61;59.23;98734.31;5010825;28;103047;-67
2023/09/09 07:04:23;;;;;;;117.60;112.97;;;;;;;29.39;57.13;98729.06;5014587;28;103393;-68
2023/09/09 07:06:55;;;;;;;93.47;89.68;;;;;;;29.79;56.57;98735.56;5013865;28;103706;-66
2023/09/09 07:09:42;;;;;;;272.17;261.85;;;;;;;28.52;60.39;98738.41;5013523;27;102699;-66
2023/09/09 07:12:16;;;;;;;190.43;183.05;;;;;;;29.24;59.03;98737.63;5016352;28;103663;-67
2023/09/09 07:14:54;;;;;;;77.10;73.70;;;;;;;30.08;55.52;98736.63;5011485;28;103668;-66
2023/09/09 07:17:26;;;;;;;80.43;76.85;;;;;;;30.12;54.91;98741.34;5013169;28;103535;-67
2023/09/09 07:19:57;;;;;;;85.07;81.20;;;;;;;30.34;54.65;98741.63;5015041;28;102740;-68
2023/09/09 07:22:30;;;;;;;80.32;76.80;;;;;;;30.44;54.34;98733.72;5012818;28;104706;-67
2023/09/09 07:25:11;;;;;;;85.90;82.15;;;;;;;30.91;52.29;98740.78;5009980;28;103136;-67
2023/09/09 07:27:43;;;;;;;158.70;152.35;;;;;;;29.10;59.03;98736.94;4993863;27;103747;-67
2023/09/09 07:30:13;;;;;;;81.57;78.07;;;;;;;30.86;54.24;98742.56;5015873;28;102768;-67
2023/09/09 07:32:43;;;;;;;106.55;102.10;;;;;;;31.46;51.07;98741.13;4998861;28;103026;-67
2023/09/09 07:35:14;;;;;;;94.75;90.97;;;;;;;32.25;49.54;98736.56;5016785;28;102998;-67
2023/09/09 07:37:46;;;;;;;107.57;103.15;;;;;;;32.33;48.83;98736.16;5018212;28;103262;-66
2023/09/09 07:40:19;;;;;;;134.55;129.07;;;;;;;31.42;50.39;98739.94;5008520;28;103023;-66
2023/09/09 07:42:49;;;;;;;124.97;119.88;;;;;;;31.14;52.56;98734.47;5017925;27;103919;-66
2023/09/09 07:45:20;;;;;;;122.57;117.78;;;;;;;32.73;48.78;98733.22;5011633;27;103459;-61
2023/09/09 07:47:53;;;;;;;314.13;298.55;;;;;;;30.75;54.12;98735.22;5018795;27;103256;-62
2023/09/09 07:50:22;;;;;;;112.23;104.10;;;;;;;33.18;48.53;98735.75;5018098;28;103468;-62
2023/09/09 07:52:51;;;;;;;99.68;95.03;;;;;;;33.83;46.87;98733.75;5018652;27;102893;-60
2023/09/09 07:55:23;;;;;;;159.23;153.00;;;;;;;32.69;49.48;98735.63;5020001;27;103252;-62
2023/09/09 07:57:54;;;;;;;100.97;96.93;;;;;;;34.71;44.40;98737.78;5018075;27;103242;-66
2023/09/09 08:00:25;;;;;;;130.52;125.05;;;;;;;34.06;44.99;98745.44;5019219;28;102776;-67
2023/09/09 08:02:56;;;;;;;202.82;195.27;;;;;;;31.38;50.05;98746.94;5018810;28;102746;-67
2023/09/09 08:05:26;;;;;;;175.75;169.18;;;;;;;33.20;47.75;98741.81;5015875;28;103377;-67
2023/09/09 08:07:58;;;;;;;153.27;147.53;;;;;;;34.67;44.58;98739.38;5000117;28;103352;-67
2023/09/09 08:10:27;;;;;;;92.00;88.28;;;;;;;36.61;40.86;98743.22;5018159;27;102844;-67
2023/09/09 08:12:55;;;;;;;104.55;100.18;;;;;;;36.94;40.15;98753.59;5015688;27;102813;-64
2023/09/09 08:15:25;;;;;;;130.10;124.82;;;;;;;35.49;41.94;98747.75;4993735;28;103363;-64
2023/09/09 08:18:09;;;;;;;262.95;253.65;;;;;;;33.98;44.64;98757.72;5012340;28;103259;-64
2023/09/09 08:20:38;;;;;;;271.88;262.15;;;;;;;34.63;44.91;98752.00;4998926;28;102949;-64
2023/09/09 08:23:07;;;;;;;183.38;176.65;;;;;;;35.56;42.96;98746.72;5008678;27;102939;-61
2023/09/09 08:25:45;;;;;;;170.87;164.27;;;;;;;35.36;43.03;98751.03;5013533;27;103065;-62
2023/09/09 08:28:21;;;;;;;281.00;270.98;;;;;;;33.72;46.32;98762.13;5014295;28;103070;-63
2023/09/09 08:30:57;;;;;;;159.48;153.30;;;;;;;36.07;41.86;98753.16;5000853;28;102921;-61
2023/09/09 08:33:28;;;;;;;119.25;114.20;;;;;;;36.88;40.15;98749.25;5018080;28;102896;-65
2023/09/09 08:36:02;;;;;;;134.97;129.60;;;;;;;37.65;38.84;98750.59;5016503;27;103384;-65
2023/09/09 08:38:35;;;;;;;182.07;175.30;;;;;;;36.28;39.98;98754.78;5016084;28;103246;-70
2023/09/09 08:41:12;;;;;;;131.02;126.07;;;;;;;38.09;37.96;98756.94;5016723;27;102706;-69
2023/09/09 08:43:51;;;;;;;98.28;94.32;;;;;;;39.13;36.07;98755.38;5014271;27;102632;-65
2023/09/09 08:46:22;;;;;;;144.05;138.45;;;;;;;37.56;38.83;98755.88;5013793;27;104424;-65
2023/09/09 08:48:53;;;;;;;134.10;128.98;;;;;;;38.71;37.28;98749.78;4999750;28;104217;-64
2023/09/09 08:51:33;;;;;;;85.05;81.45;;;;;;;39.61;35.80;98752.59;5015855;28;102736;-69
2023/09/09 08:54:04;;;;;;;83.55;80.05;;;;;;;39.80;34.89;98759.00;5008387;27;102964;-69
2023/09/09 08:56:37;;;;;;;134.83;129.60;;;;;;;39.40;35.75;98752.88;5007637;28;104319;-65
2023/09/09 08:59:10;;;;;;;110.33;105.83;;;;;;;39.57;35.61;98751.53;5015000;28;102946;-65
2023/09/09 09:01:42;;;;;;;86.05;82.50;;;;;;;40.32;34.72;98749.59;5020366;28;103096;-64
2023/09/09 09:04:18;;;;;;;95.13;91.22;;;;;;;40.20;34.35;98750.06;5015939;28;103090;-69
2023/09/09 09:06:52;;;;;;;183.93;177.23;;;;;;;38.61;36.94;98750.69;5013424;28;103266;-69
2023/09/09 09:09:23;;;;;;;188.35;181.55;;;;;;;39.14;36.94;98754.28;5007391;28;103357;-69
2023/09/09 09:11:56;;;;;;;210.43;202.87;;;;;;;36.79;39.10;98748.16;5004975;27;102949;-69
